createdAt,value
2022-11-21T00:06:41.264Z,-0.44
2022-11-21T00:11:49.514Z,-0.44
2022-11-21T00:16:58.672Z,-0.34
2022-11-21T00:22:04.880Z,-0.27
2022-11-21T00:32:41.334Z,0.12
2022-11-21T00:37:47.538Z,0.04
2022-11-21T00:42:53.745Z,0.09
2022-11-21T00:47:59.903Z,-0.08
2022-11-21T00:53:11.047Z,-0.04
2022-11-21T00:58:20.183Z,0.05
2022-11-21T01:03:28.300Z,0.23
2022-11-21T01:08:34.305Z,0.29
2022-11-21T01:13:41.827Z,0.21
2022-11-21T01:18:47.765Z,0.25
2022-11-21T01:24:02.173Z,0.21
2022-11-21T01:29:09.329Z,0.14
2022-11-21T01:34:21.557Z,0.23
2022-11-21T01:39:27.995Z,0.27
2022-11-21T01:44:34.284Z,0.34
2022-11-21T01:49:40.815Z,0.33
2022-11-21T01:54:46.954Z,0.38
2022-11-21T01:59:56.763Z,0.43
2022-11-21T02:05:02.863Z,0.49
2022-11-21T02:10:10.908Z,0.52
2022-11-21T02:15:20.380Z,0.49
2022-11-21T02:20:28.149Z,0.42
2022-11-21T02:25:34.195Z,0.37
2022-11-21T02:30:39.975Z,0.32
2022-11-21T02:35:45.966Z,0.31
2022-11-21T02:40:51.940Z,0.31
2022-11-21T02:45:57.387Z,0.29
2022-11-21T02:51:03.467Z,0.3
2022-11-21T02:56:10.426Z,0.27
2022-11-21T03:01:16.676Z,0.32
2022-11-21T03:06:20.876Z,0.38
2022-11-21T03:11:29.315Z,0.37
2022-11-21T03:16:35.984Z,0.37
2022-11-21T03:21:43.073Z,0.34
2022-11-21T03:26:50.546Z,0.33
2022-11-21T03:32:02.973Z,0.32
2022-11-21T03:37:09.498Z,0.33
2022-11-21T03:42:15.611Z,0.42
2022-11-21T03:47:19.039Z,0.48
2022-11-21T03:52:26.052Z,0.46
2022-11-21T03:57:34.211Z,0.4
2022-11-21T04:02:41.816Z,0.4
2022-11-21T04:07:48.021Z,0.45
2022-11-21T04:12:54.118Z,0.42
2022-11-21T04:18:02.649Z,0.42
2022-11-21T04:23:08.521Z,0.42
2022-11-21T04:28:18.369Z,0.52
2022-11-21T04:33:24.540Z,0.49
2022-11-21T04:44:03.743Z,0.52
2022-11-21T04:49:09.646Z,0.55
2022-11-21T04:54:18.347Z,0.47
2022-11-21T04:59:24.832Z,0.49
2022-11-21T05:04:31.016Z,0.49
2022-11-21T05:09:38.022Z,0.45
2022-11-21T05:14:44.098Z,0.35
2022-11-21T05:19:50.774Z,0.52
2022-11-21T05:24:56.608Z,0.45
2022-11-21T05:30:05.410Z,0.5
2022-11-21T05:35:11.656Z,0.62
2022-11-21T05:40:17.592Z,0.53
2022-11-21T05:45:23.586Z,0.64
2022-11-21T05:50:29.638Z,0.74
2022-11-21T05:55:35.636Z,0.78
2022-11-21T06:00:41.802Z,0.8
2022-11-21T06:05:45.467Z,0.81
2022-11-21T06:10:51.768Z,0.84
2022-11-21T06:15:57.729Z,0.89
2022-11-21T06:21:03.750Z,0.93
2022-11-21T06:26:09.659Z,0.94
2022-11-21T06:31:12.943Z,0.95
2022-11-21T06:36:19.172Z,0.9
2022-11-21T06:41:22.621Z,0.99
2022-11-21T06:46:28.642Z,0.98
2022-11-21T06:51:52.924Z,1.02
2022-11-21T06:56:59.066Z,0.97
2022-11-21T07:02:05.113Z,0.99
2022-11-21T07:07:11.922Z,1.07
2022-11-21T07:12:17.669Z,1.1
2022-11-21T07:17:23.948Z,1.04
2022-11-21T07:22:29.595Z,0.99
2022-11-21T07:27:35.498Z,0.91
2022-11-21T07:32:44.109Z,0.81
2022-11-21T07:37:53.266Z,1.09
2022-11-21T07:43:09.526Z,1.28
2022-11-21T07:48:03.734Z,1.28
2022-11-21T07:53:13.998Z,1.16
2022-11-21T07:58:20.323Z,1.17
2022-11-21T08:03:26.383Z,1.12
2022-11-21T08:08:32.475Z,0.85
2022-11-21T08:13:41.327Z,0.88
2022-11-21T08:18:50.368Z,0.92
2022-11-21T08:23:56.159Z,0.7
2022-11-21T08:34:32.394Z,1.08
2022-11-21T08:39:38.382Z,1.12
2022-11-21T08:44:46.078Z,0.8
2022-11-21T08:49:52.493Z,0.62
2022-11-21T08:54:58.622Z,0.56
2022-11-21T09:00:03.928Z,0.49
2022-11-21T09:05:09.842Z,0.52
2022-11-21T09:10:15.762Z,0.6
2022-11-21T09:15:21.028Z,0.45
2022-11-21T09:20:26.969Z,0.53
2022-11-21T09:25:35.326Z,0.78
2022-11-21T09:30:41.653Z,0.37
2022-11-21T09:35:48.006Z,0.06
2022-11-21T09:40:51.072Z,0.15
2022-11-21T09:45:57.026Z,0.04
2022-11-21T09:51:03.431Z,0.39
2022-11-21T09:56:12.484Z,0.27
2022-11-21T10:01:18.058Z,0.44
2022-11-21T10:06:23.543Z,0.41
2022-11-21T10:11:30.725Z,0.56
2022-11-21T10:16:42.099Z,0.73
2022-11-21T10:21:44.588Z,0.74
2022-11-21T10:26:52.285Z,0.77
2022-11-21T10:31:55.879Z,0.83
2022-11-21T10:37:01.561Z,0.83
2022-11-21T10:42:07.590Z,0.85
2022-11-21T10:47:13.356Z,0.43
2022-11-21T10:52:19.391Z,0.63
2022-11-21T10:57:25.209Z,0.67
2022-11-21T11:02:47.069Z,0.65
2022-11-21T11:13:44.965Z,0.81
2022-11-21T11:18:30.513Z,0.84
2022-11-21T11:23:36.576Z,0.9
2022-11-21T11:28:42.347Z,1.01
2022-11-21T11:33:48.635Z,1.04
2022-11-21T11:38:54.719Z,1.2
2022-11-21T11:44:02.759Z,1.29
2022-11-21T11:49:21.867Z,1.15
2022-11-21T11:54:15.012Z,1.06
2022-11-21T11:59:20.615Z,1.32
2022-11-21T12:04:27.290Z,0.88
2022-11-21T12:25:45.269Z,0.66
2022-11-21T12:30:51.642Z,0.62
2022-11-21T12:36:14.451Z,0.37
2022-11-21T12:41:09.354Z,0.32
2022-11-21T12:46:16.074Z,0.54
2022-11-21T12:51:21.753Z,0.62
2022-11-21T12:56:27.972Z,0.55
2022-11-21T13:01:34.236Z,0.86
2022-11-21T13:06:40.209Z,0.81
2022-11-21T13:11:46.623Z,0.79
2022-11-21T13:16:52.673Z,0.99
2022-11-21T13:22:00.784Z,1.3
2022-11-21T13:32:39.449Z,1.09
2022-11-21T13:37:45.571Z,1.1
2022-11-21T13:43:09.780Z,0.86
2022-11-21T13:47:58.528Z,0.95
2022-11-21T13:53:02.769Z,1
2022-11-21T13:58:09.995Z,0.95
2022-11-21T14:03:16.193Z,0.95
2022-11-21T14:08:23.869Z,1.11
2022-11-21T14:13:29.808Z,1.03
2022-11-21T14:24:26.394Z,0.86
2022-11-21T14:29:33.234Z,0.88
2022-11-21T14:34:40.576Z,0.82
2022-11-21T14:39:50.071Z,0.83
2022-11-21T14:44:52.661Z,0.73
2022-11-21T14:50:07.367Z,0.87
2022-11-21T14:55:30.861Z,0.61
2022-11-21T15:10:56.785Z,0.82
2022-11-21T15:16:02.233Z,0.67
2022-11-21T15:21:09.509Z,0.57
2022-11-21T15:26:15.924Z,0.71
2022-11-21T15:31:21.841Z,0.76
2022-11-21T15:36:34.813Z,0.49
2022-11-21T15:52:26.191Z,0.72
2022-11-21T16:03:01.636Z,0.53
2022-11-21T16:08:08.559Z,0.37
2022-11-21T16:13:14.091Z,0.36
2022-11-21T16:18:19.409Z,0.39
2022-11-21T16:23:25.694Z,0.35
2022-11-21T16:28:31.770Z,0.19
2022-11-21T16:39:13.680Z,0.31
2022-11-21T16:44:17.601Z,0.24
2022-11-21T16:49:21.466Z,0.04
2022-11-21T16:54:25.240Z,-0.04
2022-11-21T16:59:31.459Z,-0.15
2022-11-21T17:04:37.371Z,-0.19
2022-11-21T17:09:43.459Z,-0.16
2022-11-21T17:14:49.785Z,-0.23
2022-11-21T17:19:55.831Z,-0.34
2022-11-21T17:25:01.847Z,-0.37
2022-11-21T17:30:07.790Z,-0.37
2022-11-21T17:35:14.549Z,-0.41
2022-11-21T17:40:20.070Z,-0.46
2022-11-21T17:45:23.556Z,-0.44
2022-11-21T17:50:29.287Z,-0.41
2022-11-21T17:55:35.233Z,-0.42
2022-11-21T18:00:45.865Z,-0.44
2022-11-21T18:05:51.847Z,-0.47
2022-11-21T18:10:53.812Z,-0.46
2022-11-21T18:16:00.838Z,-0.47
2022-11-21T18:21:04.368Z,-0.42
2022-11-21T18:26:10.420Z,-0.36
2022-11-21T18:31:16.250Z,-0.34
2022-11-21T18:36:20.671Z,-0.3
2022-11-21T18:41:26.859Z,-0.32
2022-11-21T18:46:32.867Z,-0.3
2022-11-21T18:51:42.791Z,-0.28
2022-11-21T19:02:16.461Z,-0.05
2022-11-21T19:07:22.807Z,-0.1
2022-11-21T19:12:28.557Z,-0.16
2022-11-21T19:23:04.630Z,-0.04
2022-11-21T19:28:08.720Z,-0.05
2022-11-21T19:33:14.118Z,-0.06
2022-11-21T19:38:21.350Z,-0.11
2022-11-21T19:43:27.286Z,-0.11
2022-11-21T19:48:33.141Z,-0.05
2022-11-21T19:59:12.993Z,0.02
2022-11-21T20:09:51.963Z,0
2022-11-21T20:26:04.324Z,0.18
2022-11-21T20:36:42.631Z,0.29
2022-11-21T20:41:48.213Z,0.26
2022-11-21T20:46:51.744Z,0.24
2022-11-21T21:02:33.039Z,0.17
2022-11-21T21:07:39.050Z,0.07
2022-11-21T21:12:48.588Z,0.09
2022-11-21T21:17:50.738Z,0.1
2022-11-21T21:28:26.227Z,0.46
2022-11-21T21:33:31.931Z,0.44
2022-11-21T21:44:07.868Z,0.5
2022-11-21T21:49:13.354Z,0.53
2022-11-21T21:54:21.541Z,0.53
2022-11-21T21:59:29.191Z,0.5
2022-11-21T22:26:34.528Z,0.18
2022-11-21T22:31:41.303Z,0.08
2022-11-21T22:36:47.580Z,-0.01
2022-11-21T22:41:57.064Z,-0.02
2022-11-21T22:47:02.008Z,-0.08
2022-11-21T22:52:09.679Z,-0.07
2022-11-21T22:57:15.013Z,-0.1
2022-11-21T23:02:20.847Z,-0.19
2022-11-21T23:07:26.741Z,-0.25
2022-11-21T23:12:33.910Z,-0.31
2022-11-21T23:17:40.416Z,-0.37
2022-11-21T23:22:46.765Z,-0.39
2022-11-21T23:27:52.476Z,-0.49
2022-11-21T23:33:01.548Z,-0.44
2022-11-21T23:38:07.817Z,-0.45
2022-11-21T23:43:13.260Z,-0.39
2022-11-21T23:48:18.807Z,-0.33
2022-11-21T23:53:24.706Z,-0.28
2022-11-21T23:58:28.350Z,-0.27
